首页
METAR-TAF:

METAR-TAF

机场 :

圣但尼, 留尼汪岛

羅蘭加洛斯機場

纬度: 20-53S, 经度: 055-31E, 海拔: 21米

当前天气观测

该预报发布于29分钟前的14:00 UTC
风速8节,风向
温度 28°C
湿度 74%
气压 1007 hPa
能见度10公里或以上
散云层高于2200英尺
多云层高于3300英尺

METAR: FMEE 221400Z AUTO 08008KT 9999 SCT022 BKN033 28/23 Q1007 BECMG SCT025TCU

时间: 18:29 (14:29 UTC)

预报

该预报发布于35分钟前的13:54 UTC
预报有效从22日的 13点(UTC)到 23日的 18点(UTC)
风速5节,风向南转南东
能见度10公里或以上
散云层高于2500英尺, 塔状积云.
短暂存在
从 22日的 18点(UTC)到 23日的 03点(UTC)
能見度: 4000
散云层高于2000英尺, 塔状积云.
阵雨
成为
从 23日的 04点(UTC)到 23日的 06点(UTC)
风速10节,风向东转东北
成为
从 23日的 14点(UTC)到 23日的 16点(UTC)
风速6节,风向南转南东

TAF: FMEE 221354Z 2213/2318 16005KT 9999 SCT025TCU TEMPO 2218/2303 4000 SHRA SCT020TCU BECMG 2304/2306 07010KT BECMG 2314/2316 16006KT

超过4000个机场的气象观测和天气预报(METAR&TAF报告)。

可查询的气象台以黄色和红色小点在地图上表示。

将鼠标移到小点上方,可查看气象台名称。

然后点击查看天气观测和预报。

如需切换地图:点击带黑十字的绿色按钮放大地图;点击带横线的绿色按钮缩小地图;或者点击绿色箭头查看邻近地区的地图。


METAR-TAF: